Terminal Aerodrome Forecast
Issued by NWS

Home | Current Version | Previous Version | Text Only | Print | Product List | Glossary On
Versions: 1 2 3 4 5 6 7 8 9 10 11 12 13 14 15 16 17 18 19 20 21
000
FTUS43 KDMX 131734
TAFMCW
TAF
KMCW 131734Z 1318/1418 32026G41KT P6SM OVC011
     FM140000 33022G32KT P6SM OVC030
     FM140200 34012G25KT P6SM OVC040
     FM141000 33005KT P6SM OVC030
     FM141500 30009KT P6SM OVC060=

USA.gov is the U.S. government's official web portal to all federal, state and local government web resources and services.